sensor_id;sensor_type;location;lat;lon;timestamp;P1;durP1;ratioP1;P2;durP2;ratioP2
17850;SDS011;9051;51.548;14.348;2022-09-09T00:00:55;2.67;;;2.10;;
17850;SDS011;9051;51.548;14.348;2022-09-09T00:03:35;2.30;;;2.10;;
17850;SDS011;9051;51.548;14.348;2022-09-09T00:06:21;2.00;;;1.90;;
17850;SDS011;9051;51.548;14.348;2022-09-09T00:09:00;2.20;;;2.10;;
17850;SDS011;9051;51.548;14.348;2022-09-09T00:11:36;2.53;;;2.10;;
17850;SDS011;9051;51.548;14.348;2022-09-09T00:14:18;2.60;;;2.00;;
17850;SDS011;9051;51.548;14.348;2022-09-09T00:16:55;2.17;;;1.97;;
17850;SDS011;9051;51.548;14.348;2022-09-09T00:19:33;2.47;;;2.07;;
17850;SDS011;9051;51.548;14.348;2022-09-09T00:22:16;2.17;;;1.97;;
17850;SDS011;9051;51.548;14.348;2022-09-09T00:24:51;2.87;;;2.00;;
17850;SDS011;9051;51.548;14.348;2022-09-09T00:27:25;2.30;;;2.17;;
17850;SDS011;9051;51.548;14.348;2022-09-09T00:30:12;2.10;;;2.00;;
17850;SDS011;9051;51.548;14.348;2022-09-09T00:32:46;2.03;;;1.83;;
17850;SDS011;9051;51.548;14.348;2022-09-09T00:35:21;3.60;;;2.10;;
17850;SDS011;9051;51.548;14.348;2022-09-09T00:37:59;1.90;;;1.80;;
17850;SDS011;9051;51.548;14.348;2022-09-09T00:40:34;2.13;;;2.00;;
17850;SDS011;9051;51.548;14.348;2022-09-09T00:43:22;5.63;;;2.13;;
17850;SDS011;9051;51.548;14.348;2022-09-09T00:46:13;2.07;;;1.97;;
17850;SDS011;9051;51.548;14.348;2022-09-09T00:49:01;2.43;;;2.00;;
17850;SDS011;9051;51.548;14.348;2022-09-09T00:51:39;3.03;;;2.20;;
17850;SDS011;9051;51.548;14.348;2022-09-09T00:54:27;2.10;;;2.00;;
17850;SDS011;9051;51.548;14.348;2022-09-09T00:57:14;1.97;;;1.87;;
17850;SDS011;9051;51.548;14.348;2022-09-09T01:00:14;2.43;;;2.10;;
17850;SDS011;9051;51.548;14.348;2022-09-09T01:02:53;2.90;;;2.00;;
17850;SDS011;9051;51.548;14.348;2022-09-09T01:05:43;2.17;;;1.97;;
17850;SDS011;9051;51.548;14.348;2022-09-09T01:08:23;4.63;;;2.17;;
17850;SDS011;9051;51.548;14.348;2022-09-09T01:11:16;2.40;;;2.10;;
17850;SDS011;9051;51.548;14.348;2022-09-09T01:13:53;2.47;;;2.23;;
17850;SDS011;9051;51.548;14.348;2022-09-09T01:16:35;2.20;;;2.10;;
17850;SDS011;9051;51.548;14.348;2022-09-09T01:19:07;2.33;;;2.13;;
17850;SDS011;9051;51.548;14.348;2022-09-09T01:21:54;1.97;;;1.87;;
17850;SDS011;9051;51.548;14.348;2022-09-09T01:24:35;2.40;;;2.20;;
17850;SDS011;9051;51.548;14.348;2022-09-09T01:27:21;2.83;;;1.93;;
17850;SDS011;9051;51.548;14.348;2022-09-09T01:29:55;2.57;;;2.17;;
17850;SDS011;9051;51.548;14.348;2022-09-09T01:32:39;2.30;;;2.10;;
17850;SDS011;9051;51.548;14.348;2022-09-09T01:35:17;3.83;;;2.20;;
17850;SDS011;9051;51.548;14.348;2022-09-09T01:38:03;2.23;;;2.07;;
17850;SDS011;9051;51.548;14.348;2022-09-09T01:40:37;4.00;;;1.93;;
17850;SDS011;9051;51.548;14.348;2022-09-09T01:43:11;3.50;;;2.30;;
17850;SDS011;9051;51.548;14.348;2022-09-09T01:45:44;2.83;;;2.20;;
17850;SDS011;9051;51.548;14.348;2022-09-09T01:48:19;2.83;;;2.10;;
17850;SDS011;9051;51.548;14.348;2022-09-09T01:51:05;2.50;;;2.00;;
17850;SDS011;9051;51.548;14.348;2022-09-09T01:53:37;2.47;;;2.10;;
17850;SDS011;9051;51.548;14.348;2022-09-09T01:56:20;3.00;;;2.20;;
17850;SDS011;9051;51.548;14.348;2022-09-09T01:59:07;2.40;;;2.10;;
17850;SDS011;9051;51.548;14.348;2022-09-09T02:01:56;3.10;;;2.27;;
17850;SDS011;9051;51.548;14.348;2022-09-09T02:04:39;2.33;;;2.00;;
17850;SDS011;9051;51.548;14.348;2022-09-09T02:07:25;2.00;;;1.90;;
17850;SDS011;9051;51.548;14.348;2022-09-09T02:10:09;2.40;;;2.13;;
17850;SDS011;9051;51.548;14.348;2022-09-09T02:12:50;3.23;;;2.10;;
17850;SDS011;9051;51.548;14.348;2022-09-09T02:15:30;2.00;;;1.90;;
17850;SDS011;9051;51.548;14.348;2022-09-09T02:18:07;4.00;;;2.40;;
17850;SDS011;9051;51.548;14.348;2022-09-09T02:20:44;2.93;;;2.30;;
17850;SDS011;9051;51.548;14.348;2022-09-09T02:23:18;4.13;;;2.20;;
17850;SDS011;9051;51.548;14.348;2022-09-09T02:25:56;2.30;;;2.10;;
17850;SDS011;9051;51.548;14.348;2022-09-09T02:28:30;2.90;;;2.27;;
17850;SDS011;9051;51.548;14.348;2022-09-09T02:31:06;2.50;;;2.30;;
17850;SDS011;9051;51.548;14.348;2022-09-09T02:33:44;3.53;;;2.10;;
17850;SDS011;9051;51.548;14.348;2022-09-09T02:36:19;2.77;;;2.00;;
17850;SDS011;9051;51.548;14.348;2022-09-09T02:38:55;2.90;;;2.27;;
17850;SDS011;9051;51.548;14.348;2022-09-09T02:41:34;2.30;;;2.10;;
17850;SDS011;9051;51.548;14.348;2022-09-09T02:44:10;2.10;;;2.00;;
17850;SDS011;9051;51.548;14.348;2022-09-09T02:46:49;3.53;;;2.03;;
17850;SDS011;9051;51.548;14.348;2022-09-09T02:49:40;4.17;;;2.50;;
17850;SDS011;9051;51.548;14.348;2022-09-09T02:52:25;5.07;;;2.40;;
17850;SDS011;9051;51.548;14.348;2022-09-09T02:55:04;3.67;;;2.33;;
17850;SDS011;9051;51.548;14.348;2022-09-09T02:57:42;3.73;;;2.23;;
17850;SDS011;9051;51.548;14.348;2022-09-09T03:00:22;6.93;;;2.60;;
17850;SDS011;9051;51.548;14.348;2022-09-09T03:02:57;3.43;;;2.23;;
17850;SDS011;9051;51.548;14.348;2022-09-09T03:05:30;4.17;;;2.10;;
17850;SDS011;9051;51.548;14.348;2022-09-09T03:08:04;2.43;;;2.10;;
17850;SDS011;9051;51.548;14.348;2022-09-09T03:10:37;3.63;;;2.20;;
17850;SDS011;9051;51.548;14.348;2022-09-09T03:13:10;2.70;;;2.20;;
17850;SDS011;9051;51.548;14.348;2022-09-09T03:15:44;3.90;;;2.30;;
17850;SDS011;9051;51.548;14.348;2022-09-09T03:18:22;5.53;;;2.33;;
17850;SDS011;9051;51.548;14.348;2022-09-09T03:20:57;2.77;;;2.10;;
17850;SDS011;9051;51.548;14.348;2022-09-09T03:23:30;2.63;;;2.10;;
17850;SDS011;9051;51.548;14.348;2022-09-09T03:26:06;3.23;;;2.30;;
17850;SDS011;9051;51.548;14.348;2022-09-09T03:28:44;4.07;;;2.23;;
17850;SDS011;9051;51.548;14.348;2022-09-09T03:31:24;4.43;;;2.03;;
17850;SDS011;9051;51.548;14.348;2022-09-09T03:34:02;3.33;;;2.30;;
17850;SDS011;9051;51.548;14.348;2022-09-09T03:36:37;4.70;;;2.20;;
17850;SDS011;9051;51.548;14.348;2022-09-09T03:39:11;3.07;;;2.27;;
17850;SDS011;9051;51.548;14.348;2022-09-09T03:41:46;3.13;;;1.97;;
17850;SDS011;9051;51.548;14.348;2022-09-09T03:44:19;3.53;;;2.00;;
17850;SDS011;9051;51.548;14.348;2022-09-09T03:46:51;3.40;;;2.50;;
17850;SDS011;9051;51.548;14.348;2022-09-09T03:49:25;3.33;;;1.97;;
17850;SDS011;9051;51.548;14.348;2022-09-09T03:51:59;2.37;;;1.80;;
17850;SDS011;9051;51.548;14.348;2022-09-09T03:54:33;2.83;;;2.20;;
17850;SDS011;9051;51.548;14.348;2022-09-09T03:57:05;4.57;;;2.00;;
17850;SDS011;9051;51.548;14.348;2022-09-09T03:59:37;2.90;;;2.33;;
17850;SDS011;9051;51.548;14.348;2022-09-09T04:02:10;4.20;;;2.00;;
17850;SDS011;9051;51.548;14.348;2022-09-09T04:04:44;2.77;;;2.20;;
17850;SDS011;9051;51.548;14.348;2022-09-09T04:07:16;3.30;;;1.93;;
17850;SDS011;9051;51.548;14.348;2022-09-09T04:09:49;2.77;;;2.20;;
17850;SDS011;9051;51.548;14.348;2022-09-09T04:12:22;2.53;;;2.07;;
17850;SDS011;9051;51.548;14.348;2022-09-09T04:14:54;3.20;;;2.33;;
17850;SDS011;9051;51.548;14.348;2022-09-09T04:17:27;3.03;;;1.90;;
17850;SDS011;9051;51.548;14.348;2022-09-09T04:20:01;2.10;;;1.90;;
17850;SDS011;9051;51.548;14.348;2022-09-09T04:22:33;1.87;;;1.77;;
17850;SDS011;9051;51.548;14.348;2022-09-09T04:25:05;4.47;;;2.20;;
17850;SDS011;9051;51.548;14.348;2022-09-09T04:27:39;1.93;;;1.80;;
17850;SDS011;9051;51.548;14.348;2022-09-09T04:30:13;4.33;;;2.30;;
17850;SDS011;9051;51.548;14.348;2022-09-09T04:32:46;5.63;;;2.17;;
17850;SDS011;9051;51.548;14.348;2022-09-09T04:35:19;2.43;;;2.20;;
17850;SDS011;9051;51.548;14.348;2022-09-09T04:37:51;3.57;;;1.97;;
17850;SDS011;9051;51.548;14.348;2022-09-09T04:40:24;4.13;;;2.30;;
17850;SDS011;9051;51.548;14.348;2022-09-09T04:42:57;3.47;;;1.93;;
17850;SDS011;9051;51.548;14.348;2022-09-09T04:45:29;4.73;;;2.43;;
17850;SDS011;9051;51.548;14.348;2022-09-09T04:48:04;2.63;;;2.13;;
17850;SDS011;9051;51.548;14.348;2022-09-09T04:50:38;5.13;;;2.43;;
17850;SDS011;9051;51.548;14.348;2022-09-09T04:53:15;5.77;;;2.10;;
17850;SDS011;9051;51.548;14.348;2022-09-09T04:55:47;3.17;;;2.10;;
17850;SDS011;9051;51.548;14.348;2022-09-09T04:58:20;7.00;;;2.23;;
17850;SDS011;9051;51.548;14.348;2022-09-09T05:00:54;7.13;;;2.10;;
17850;SDS011;9051;51.548;14.348;2022-09-09T05:03:26;4.40;;;2.50;;
17850;SDS011;9051;51.548;14.348;2022-09-09T05:06:04;5.13;;;2.70;;
17850;SDS011;9051;51.548;14.348;2022-09-09T05:08:40;6.20;;;2.50;;
17850;SDS011;9051;51.548;14.348;2022-09-09T05:11:15;5.47;;;3.00;;
17850;SDS011;9051;51.548;14.348;2022-09-09T05:13:48;7.43;;;2.63;;
17850;SDS011;9051;51.548;14.348;2022-09-09T05:16:22;5.20;;;2.63;;
17850;SDS011;9051;51.548;14.348;2022-09-09T05:18:54;5.13;;;2.80;;
17850;SDS011;9051;51.548;14.348;2022-09-09T05:21:28;6.97;;;2.80;;
17850;SDS011;9051;51.548;14.348;2022-09-09T05:24:01;9.27;;;3.10;;
17850;SDS011;9051;51.548;14.348;2022-09-09T05:26:34;6.07;;;3.30;;
17850;SDS011;9051;51.548;14.348;2022-09-09T05:29:07;7.90;;;3.37;;
17850;SDS011;9051;51.548;14.348;2022-09-09T05:31:39;7.13;;;3.10;;
17850;SDS011;9051;51.548;14.348;2022-09-09T05:34:15;4.97;;;2.73;;
17850;SDS011;9051;51.548;14.348;2022-09-09T05:36:48;5.80;;;2.90;;
17850;SDS011;9051;51.548;14.348;2022-09-09T05:39:25;5.37;;;2.80;;
17850;SDS011;9051;51.548;14.348;2022-09-09T05:41:58;5.90;;;3.03;;
17850;SDS011;9051;51.548;14.348;2022-09-09T05:44:30;7.20;;;2.73;;
17850;SDS011;9051;51.548;14.348;2022-09-09T05:47:02;4.50;;;2.50;;
17850;SDS011;9051;51.548;14.348;2022-09-09T05:49:34;5.33;;;2.53;;
17850;SDS011;9051;51.548;14.348;2022-09-09T05:52:08;3.70;;;2.50;;
17850;SDS011;9051;51.548;14.348;2022-09-09T05:54:40;4.73;;;2.73;;
17850;SDS011;9051;51.548;14.348;2022-09-09T05:57:13;4.20;;;2.40;;
17850;SDS011;9051;51.548;14.348;2022-09-09T05:59:46;5.60;;;2.63;;
17850;SDS011;9051;51.548;14.348;2022-09-09T06:02:18;9.37;;;2.87;;
17850;SDS011;9051;51.548;14.348;2022-09-09T06:04:50;4.57;;;2.27;;
17850;SDS011;9051;51.548;14.348;2022-09-09T06:07:24;5.73;;;2.50;;
17850;SDS011;9051;51.548;14.348;2022-09-09T06:09:56;6.33;;;2.60;;
17850;SDS011;9051;51.548;14.348;2022-09-09T06:12:30;2.83;;;1.97;;
17850;SDS011;9051;51.548;14.348;2022-09-09T06:15:05;4.30;;;2.10;;
17850;SDS011;9051;51.548;14.348;2022-09-09T06:17:39;4.43;;;2.20;;
17850;SDS011;9051;51.548;14.348;2022-09-09T06:20:14;5.00;;;2.20;;
17850;SDS011;9051;51.548;14.348;2022-09-09T06:22:47;3.40;;;2.13;;
17850;SDS011;9051;51.548;14.348;2022-09-09T06:25:21;3.77;;;1.83;;
17850;SDS011;9051;51.548;14.348;2022-09-09T06:27:54;5.93;;;2.20;;
17850;SDS011;9051;51.548;14.348;2022-09-09T06:30:26;3.63;;;1.77;;
17850;SDS011;9051;51.548;14.348;2022-09-09T06:33:00;3.73;;;1.70;;
17850;SDS011;9051;51.548;14.348;2022-09-09T06:35:32;3.40;;;1.97;;
17850;SDS011;9051;51.548;14.348;2022-09-09T06:38:06;4.27;;;1.87;;
17850;SDS011;9051;51.548;14.348;2022-09-09T06:40:39;5.20;;;2.60;;
17850;SDS011;9051;51.548;14.348;2022-09-09T06:43:12;5.53;;;1.90;;
17850;SDS011;9051;51.548;14.348;2022-09-09T06:45:55;3.40;;;1.63;;
17850;SDS011;9051;51.548;14.348;2022-09-09T06:48:28;6.13;;;2.00;;
17850;SDS011;9051;51.548;14.348;2022-09-09T06:51:01;3.70;;;2.00;;
17850;SDS011;9051;51.548;14.348;2022-09-09T06:53:37;3.93;;;1.57;;
17850;SDS011;9051;51.548;14.348;2022-09-09T06:56:17;2.60;;;1.60;;
17850;SDS011;9051;51.548;14.348;2022-09-09T06:58:56;2.43;;;1.60;;
17850;SDS011;9051;51.548;14.348;2022-09-09T07:01:34;1.97;;;1.60;;
17850;SDS011;9051;51.548;14.348;2022-09-09T07:04:12;1.97;;;1.60;;
17850;SDS011;9051;51.548;14.348;2022-09-09T07:06:47;2.23;;;1.60;;
17850;SDS011;9051;51.548;14.348;2022-09-09T07:09:27;1.67;;;1.57;;
17850;SDS011;9051;51.548;14.348;2022-09-09T07:12:02;2.27;;;1.53;;
17850;SDS011;9051;51.548;14.348;2022-09-09T07:14:42;2.00;;;1.37;;
17850;SDS011;9051;51.548;14.348;2022-09-09T07:17:16;2.57;;;1.70;;
17850;SDS011;9051;51.548;14.348;2022-09-09T07:19:48;2.83;;;1.77;;
17850;SDS011;9051;51.548;14.348;2022-09-09T07:22:21;3.87;;;1.57;;
17850;SDS011;9051;51.548;14.348;2022-09-09T07:24:54;3.10;;;1.53;;
17850;SDS011;9051;51.548;14.348;2022-09-09T07:27:29;1.50;;;1.40;;
17850;SDS011;9051;51.548;14.348;2022-09-09T07:30:02;2.13;;;1.53;;
17850;SDS011;9051;51.548;14.348;2022-09-09T07:32:36;3.93;;;1.30;;
17850;SDS011;9051;51.548;14.348;2022-09-09T07:35:10;2.00;;;1.73;;
17850;SDS011;9051;51.548;14.348;2022-09-09T07:37:42;5.20;;;1.60;;
17850;SDS011;9051;51.548;14.348;2022-09-09T07:40:17;2.87;;;1.40;;
17850;SDS011;9051;51.548;14.348;2022-09-09T07:42:52;2.03;;;1.43;;
17850;SDS011;9051;51.548;14.348;2022-09-09T07:45:25;3.20;;;1.30;;
17850;SDS011;9051;51.548;14.348;2022-09-09T07:47:58;2.43;;;1.40;;
17850;SDS011;9051;51.548;14.348;2022-09-09T07:50:30;2.57;;;1.30;;
17850;SDS011;9051;51.548;14.348;2022-09-09T07:53:02;3.90;;;1.50;;
17850;SDS011;9051;51.548;14.348;2022-09-09T07:55:38;2.30;;;1.50;;
17850;SDS011;9051;51.548;14.348;2022-09-09T07:58:11;2.40;;;1.40;;
17850;SDS011;9051;51.548;14.348;2022-09-09T08:00:43;4.27;;;1.20;;
17850;SDS011;9051;51.548;14.348;2022-09-09T08:03:17;2.57;;;1.50;;
17850;SDS011;9051;51.548;14.348;2022-09-09T08:05:50;5.17;;;1.53;;
17850;SDS011;9051;51.548;14.348;2022-09-09T08:08:22;2.30;;;1.30;;
17850;SDS011;9051;51.548;14.348;2022-09-09T08:11:02;3.77;;;1.60;;
17850;SDS011;9051;51.548;14.348;2022-09-09T08:13:36;1.80;;;1.20;;
17850;SDS011;9051;51.548;14.348;2022-09-09T08:16:10;2.50;;;1.37;;
17850;SDS011;9051;51.548;14.348;2022-09-09T08:18:45;2.93;;;1.30;;
17850;SDS011;9051;51.548;14.348;2022-09-09T08:21:19;3.43;;;1.50;;
17850;SDS011;9051;51.548;14.348;2022-09-09T08:23:55;2.38;;;1.10;;
17850;SDS011;9051;51.548;14.348;2022-09-09T08:26:30;2.77;;;1.30;;
17850;SDS011;9051;51.548;14.348;2022-09-09T08:29:05;3.10;;;1.20;;
17850;SDS011;9051;51.548;14.348;2022-09-09T08:31:39;2.15;;;1.10;;
17850;SDS011;9051;51.548;14.348;2022-09-09T08:34:13;1.90;;;1.20;;
17850;SDS011;9051;51.548;14.348;2022-09-09T08:36:47;3.67;;;1.98;;
17850;SDS011;9051;51.548;14.348;2022-09-09T08:39:21;2.63;;;1.13;;
17850;SDS011;9051;51.548;14.348;2022-09-09T08:42:08;2.65;;;1.30;;
17850;SDS011;9051;51.548;14.348;2022-09-09T08:44:57;2.58;;;1.05;;
17850;SDS011;9051;51.548;14.348;2022-09-09T08:47:54;2.63;;;1.40;;
17850;SDS011;9051;51.548;14.348;2022-09-09T08:50:46;2.65;;;1.27;;
17850;SDS011;9051;51.548;14.348;2022-09-09T08:53:27;6.50;;;1.38;;
17850;SDS011;9051;51.548;14.348;2022-09-09T08:56:09;1.98;;;1.00;;
17850;SDS011;9051;51.548;14.348;2022-09-09T08:58:54;2.42;;;1.33;;
17850;SDS011;9051;51.548;14.348;2022-09-09T09:01:42;2.85;;;1.30;;
17850;SDS011;9051;51.548;14.348;2022-09-09T09:04:29;1.30;;;1.20;;
17850;SDS011;9051;51.548;14.348;2022-09-09T09:07:15;4.93;;;1.35;;
17850;SDS011;9051;51.548;14.348;2022-09-09T09:09:57;5.75;;;1.40;;
17850;SDS011;9051;51.548;14.348;2022-09-09T09:12:38;1.83;;;0.95;;
17850;SDS011;9051;51.548;14.348;2022-09-09T09:15:17;2.83;;;1.13;;
17850;SDS011;9051;51.548;14.348;2022-09-09T09:17:54;1.60;;;1.38;;
17850;SDS011;9051;51.548;14.348;2022-09-09T09:20:27;5.28;;;1.77;;
17850;SDS011;9051;51.548;14.348;2022-09-09T09:23:05;3.47;;;1.30;;
17850;SDS011;9051;51.548;14.348;2022-09-09T09:25:46;4.13;;;1.30;;
17850;SDS011;9051;51.548;14.348;2022-09-09T09:28:22;1.20;;;1.02;;
17850;SDS011;9051;51.548;14.348;2022-09-09T09:31:03;1.95;;;1.50;;
17850;SDS011;9051;51.548;14.348;2022-09-09T09:33:43;2.22;;;1.25;;
17850;SDS011;9051;51.548;14.348;2022-09-09T09:36:21;2.95;;;1.17;;
17850;SDS011;9051;51.548;14.348;2022-09-09T09:38:58;9.88;;;1.30;;
17850;SDS011;9051;51.548;14.348;2022-09-09T09:41:34;4.63;;;1.30;;
17850;SDS011;9051;51.548;14.348;2022-09-09T09:44:20;1.85;;;1.33;;
17850;SDS011;9051;51.548;14.348;2022-09-09T09:47:06;1.92;;;1.02;;
17850;SDS011;9051;51.548;14.348;2022-09-09T09:49:50;2.83;;;1.20;;
17850;SDS011;9051;51.548;14.348;2022-09-09T09:52:24;1.40;;;1.05;;
17850;SDS011;9051;51.548;14.348;2022-09-09T09:54:58;1.55;;;1.40;;
17850;SDS011;9051;51.548;14.348;2022-09-09T09:57:34;2.42;;;1.33;;
17850;SDS011;9051;51.548;14.348;2022-09-09T10:00:13;1.40;;;1.10;;
17850;SDS011;9051;51.548;14.348;2022-09-09T10:02:54;1.98;;;1.33;;
17850;SDS011;9051;51.548;14.348;2022-09-09T10:05:30;2.25;;;1.23;;
17850;SDS011;9051;51.548;14.348;2022-09-09T10:08:10;3.90;;;1.60;;
17850;SDS011;9051;51.548;14.348;2022-09-09T10:10:49;2.70;;;1.10;;
17850;SDS011;9051;51.548;14.348;2022-09-09T10:13:29;3.13;;;1.10;;
17850;SDS011;9051;51.548;14.348;2022-09-09T10:16:10;1.45;;;1.20;;
17850;SDS011;9051;51.548;14.348;2022-09-09T10:18:57;3.72;;;1.27;;
17850;SDS011;9051;51.548;14.348;2022-09-09T10:21:40;2.65;;;1.00;;
17850;SDS011;9051;51.548;14.348;2022-09-09T10:24:31;2.17;;;1.05;;
17850;SDS011;9051;51.548;14.348;2022-09-09T10:27:13;1.88;;;1.10;;
17850;SDS011;9051;51.548;14.348;2022-09-09T10:29:57;1.40;;;1.05;;
17850;SDS011;9051;51.548;14.348;2022-09-09T10:32:45;2.58;;;1.13;;
17850;SDS011;9051;51.548;14.348;2022-09-09T10:35:35;2.67;;;1.33;;
17850;SDS011;9051;51.548;14.348;2022-09-09T10:38:14;2.80;;;1.35;;
17850;SDS011;9051;51.548;14.348;2022-09-09T10:41:11;1.83;;;1.10;;
17850;SDS011;9051;51.548;14.348;2022-09-09T10:43:56;4.35;;;1.50;;
17850;SDS011;9051;51.548;14.348;2022-09-09T10:46:57;1.73;;;1.02;;
17850;SDS011;9051;51.548;14.348;2022-09-09T10:49:50;4.30;;;1.40;;
17850;SDS011;9051;51.548;14.348;2022-09-09T10:52:35;1.88;;;1.10;;
17850;SDS011;9051;51.548;14.348;2022-09-09T10:55:14;2.63;;;1.10;;
17850;SDS011;9051;51.548;14.348;2022-09-09T10:57:51;3.05;;;1.20;;
17850;SDS011;9051;51.548;14.348;2022-09-09T11:00:25;4.15;;;1.30;;
17850;SDS011;9051;51.548;14.348;2022-09-09T11:03:08;4.53;;;1.40;;
17850;SDS011;9051;51.548;14.348;2022-09-09T11:05:49;2.33;;;1.15;;
17850;SDS011;9051;51.548;14.348;2022-09-09T11:08:26;2.28;;;1.02;;
17850;SDS011;9051;51.548;14.348;2022-09-09T11:11:01;2.10;;;1.02;;
17850;SDS011;9051;51.548;14.348;2022-09-09T11:13:36;2.03;;;1.02;;
17850;SDS011;9051;51.548;14.348;2022-09-09T11:16:17;2.38;;;0.80;;
17850;SDS011;9051;51.548;14.348;2022-09-09T11:18:57;1.38;;;0.98;;
17850;SDS011;9051;51.548;14.348;2022-09-09T11:21:34;4.40;;;0.75;;
17850;SDS011;9051;51.548;14.348;2022-09-09T11:24:13;1.88;;;0.90;;
17850;SDS011;9051;51.548;14.348;2022-09-09T11:26:54;1.70;;;0.95;;
17850;SDS011;9051;51.548;14.348;2022-09-09T11:29:43;2.92;;;1.10;;
17850;SDS011;9051;51.548;14.348;2022-09-09T11:32:44;1.42;;;0.95;;
17850;SDS011;9051;51.548;14.348;2022-09-09T11:35:41;2.40;;;1.17;;
17850;SDS011;9051;51.548;14.348;2022-09-09T11:38:25;2.47;;;0.90;;
17850;SDS011;9051;51.548;14.348;2022-09-09T11:41:02;1.27;;;1.00;;
17850;SDS011;9051;51.548;14.348;2022-09-09T11:43:38;1.02;;;0.80;;
17850;SDS011;9051;51.548;14.348;2022-09-09T11:46:13;4.43;;;1.30;;
17850;SDS011;9051;51.548;14.348;2022-09-09T11:48:57;1.65;;;1.00;;
17850;SDS011;9051;51.548;14.348;2022-09-09T11:51:33;2.25;;;1.02;;
17850;SDS011;9051;51.548;14.348;2022-09-09T11:57:23;1.35;;;1.15;;
17850;SDS011;9051;51.548;14.348;2022-09-09T11:59:58;2.47;;;1.00;;
17850;SDS011;9051;51.548;14.348;2022-09-09T12:02:30;2.47;;;0.90;;
17850;SDS011;9051;51.548;14.348;2022-09-09T12:05:05;0.93;;;0.70;;
17850;SDS011;9051;51.548;14.348;2022-09-09T12:07:40;2.88;;;1.13;;
17850;SDS011;9051;51.548;14.348;2022-09-09T12:10:22;2.15;;;0.70;;
17850;SDS011;9051;51.548;14.348;2022-09-09T12:13:09;1.85;;;0.68;;
17850;SDS011;9051;51.548;14.348;2022-09-09T12:15:47;2.78;;;1.10;;
17850;SDS011;9051;51.548;14.348;2022-09-09T12:18:22;1.10;;;0.80;;
17850;SDS011;9051;51.548;14.348;2022-09-09T12:20:57;3.05;;;0.90;;
17850;SDS011;9051;51.548;14.348;2022-09-09T12:23:40;1.67;;;0.70;;
17850;SDS011;9051;51.548;14.348;2022-09-09T12:26:25;1.90;;;0.73;;
17850;SDS011;9051;51.548;14.348;2022-09-09T12:29:06;1.80;;;0.70;;
17850;SDS011;9051;51.548;14.348;2022-09-09T12:31:46;1.90;;;0.95;;
17850;SDS011;9051;51.548;14.348;2022-09-09T12:34:27;1.63;;;0.80;;
17850;SDS011;9051;51.548;14.348;2022-09-09T12:37:12;3.10;;;1.10;;
17850;SDS011;9051;51.548;14.348;2022-09-09T12:39:49;1.60;;;0.70;;
17850;SDS011;9051;51.548;14.348;2022-09-09T12:42:26;2.42;;;1.05;;
17850;SDS011;9051;51.548;14.348;2022-09-09T12:45:00;2.25;;;0.70;;
17850;SDS011;9051;51.548;14.348;2022-09-09T12:47:37;2.42;;;0.80;;
17850;SDS011;9051;51.548;14.348;2022-09-09T12:50:16;1.55;;;0.80;;
17850;SDS011;9051;51.548;14.348;2022-09-09T12:52:52;3.30;;;1.20;;
17850;SDS011;9051;51.548;14.348;2022-09-09T12:55:28;4.28;;;1.95;;
17850;SDS011;9051;51.548;14.348;2022-09-09T12:58:04;7.03;;;2.47;;
17850;SDS011;9051;51.548;14.348;2022-09-09T13:00:48;4.95;;;1.95;;
17850;SDS011;9051;51.548;14.348;2022-09-09T13:03:22;3.55;;;1.85;;
17850;SDS011;9051;51.548;14.348;2022-09-09T13:05:57;4.68;;;2.20;;
17850;SDS011;9051;51.548;14.348;2022-09-09T13:08:42;6.22;;;1.92;;
17850;SDS011;9051;51.548;14.348;2022-09-09T13:11:14;3.55;;;1.92;;
17850;SDS011;9051;51.548;14.348;2022-09-09T13:13:51;4.72;;;2.10;;
17850;SDS011;9051;51.548;14.348;2022-09-09T13:16:28;4.45;;;1.80;;
17850;SDS011;9051;51.548;14.348;2022-09-09T13:19:05;4.97;;;1.90;;
17850;SDS011;9051;51.548;14.348;2022-09-09T13:21:39;1.83;;;1.10;;
17850;SDS011;9051;51.548;14.348;2022-09-09T13:24:24;2.00;;;1.10;;
17850;SDS011;9051;51.548;14.348;2022-09-09T13:27:00;1.13;;;0.88;;
17850;SDS011;9051;51.548;14.348;2022-09-09T13:29:34;2.70;;;1.27;;
17850;SDS011;9051;51.548;14.348;2022-09-09T13:32:16;2.05;;;1.17;;
17850;SDS011;9051;51.548;14.348;2022-09-09T13:34:52;1.98;;;1.00;;
17850;SDS011;9051;51.548;14.348;2022-09-09T13:37:27;4.50;;;1.10;;
17850;SDS011;9051;51.548;14.348;2022-09-09T13:40:04;1.63;;;1.10;;
17850;SDS011;9051;51.548;14.348;2022-09-09T13:42:39;6.53;;;1.85;;
17850;SDS011;9051;51.548;14.348;2022-09-09T13:45:15;4.00;;;1.52;;
17850;SDS011;9051;51.548;14.348;2022-09-09T13:47:52;1.45;;;1.05;;
17850;SDS011;9051;51.548;14.348;2022-09-09T13:50:27;2.63;;;1.40;;
17850;SDS011;9051;51.548;14.348;2022-09-09T13:53:00;2.47;;;1.10;;
17850;SDS011;9051;51.548;14.348;2022-09-09T13:55:32;1.90;;;1.10;;
17850;SDS011;9051;51.548;14.348;2022-09-09T13:58:05;1.27;;;0.90;;
17850;SDS011;9051;51.548;14.348;2022-09-09T14:00:37;2.50;;;1.10;;
17850;SDS011;9051;51.548;14.348;2022-09-09T14:03:11;1.98;;;1.00;;
17850;SDS011;9051;51.548;14.348;2022-09-09T14:05:45;2.10;;;1.20;;
17850;SDS011;9051;51.548;14.348;2022-09-09T14:08:23;2.53;;;1.23;;
17850;SDS011;9051;51.548;14.348;2022-09-09T14:11:07;1.98;;;0.98;;
17850;SDS011;9051;51.548;14.348;2022-09-09T14:13:44;1.80;;;1.10;;
17850;SDS011;9051;51.548;14.348;2022-09-09T14:16:16;2.30;;;1.20;;
17850;SDS011;9051;51.548;14.348;2022-09-09T14:18:51;1.63;;;0.82;;
17850;SDS011;9051;51.548;14.348;2022-09-09T14:21:23;2.28;;;1.23;;
17850;SDS011;9051;51.548;14.348;2022-09-09T14:23:56;2.30;;;1.27;;
17850;SDS011;9051;51.548;14.348;2022-09-09T14:26:29;1.98;;;1.20;;
17850;SDS011;9051;51.548;14.348;2022-09-09T14:29:01;3.75;;;1.10;;
17850;SDS011;9051;51.548;14.348;2022-09-09T14:31:33;3.42;;;1.00;;
17850;SDS011;9051;51.548;14.348;2022-09-09T14:34:07;1.25;;;1.02;;
17850;SDS011;9051;51.548;14.348;2022-09-09T14:36:41;1.35;;;1.00;;
17850;SDS011;9051;51.548;14.348;2022-09-09T14:39:14;2.33;;;1.35;;
17850;SDS011;9051;51.548;14.348;2022-09-09T14:41:47;1.67;;;1.30;;
17850;SDS011;9051;51.548;14.348;2022-09-09T14:44:19;1.58;;;1.17;;
17850;SDS011;9051;51.548;14.348;2022-09-09T14:46:51;1.50;;;1.17;;
17850;SDS011;9051;51.548;14.348;2022-09-09T14:49:25;2.92;;;1.02;;
17850;SDS011;9051;51.548;14.348;2022-09-09T14:51:57;1.35;;;1.00;;
17850;SDS011;9051;51.548;14.348;2022-09-09T14:54:29;2.08;;;1.17;;
17850;SDS011;9051;51.548;14.348;2022-09-09T14:57:02;2.58;;;1.30;;
17850;SDS011;9051;51.548;14.348;2022-09-09T14:59:35;2.28;;;1.20;;
17850;SDS011;9051;51.548;14.348;2022-09-09T15:02:07;1.88;;;1.27;;
17850;SDS011;9051;51.548;14.348;2022-09-09T15:04:42;1.65;;;1.17;;
17850;SDS011;9051;51.548;14.348;2022-09-09T15:07:14;2.22;;;1.27;;
17850;SDS011;9051;51.548;14.348;2022-09-09T15:09:47;2.83;;;1.15;;
17850;SDS011;9051;51.548;14.348;2022-09-09T15:12:19;2.50;;;1.40;;
17850;SDS011;9051;51.548;14.348;2022-09-09T15:14:51;2.08;;;1.20;;
17850;SDS011;9051;51.548;14.348;2022-09-09T15:17:24;1.27;;;1.05;;
17850;SDS011;9051;51.548;14.348;2022-09-09T15:19:58;1.67;;;1.08;;
17850;SDS011;9051;51.548;14.348;2022-09-09T15:22:30;2.25;;;1.38;;
17850;SDS011;9051;51.548;14.348;2022-09-09T15:25:04;2.50;;;1.10;;
17850;SDS011;9051;51.548;14.348;2022-09-09T15:27:38;1.77;;;1.25;;
17850;SDS011;9051;51.548;14.348;2022-09-09T15:30:11;2.00;;;1.30;;
17850;SDS011;9051;51.548;14.348;2022-09-09T15:32:43;4.00;;;1.90;;
17850;SDS011;9051;51.548;14.348;2022-09-09T15:35:17;3.35;;;1.90;;
17850;SDS011;9051;51.548;14.348;2022-09-09T15:37:48;2.72;;;1.50;;
17850;SDS011;9051;51.548;14.348;2022-09-09T15:40:20;2.58;;;1.50;;
17850;SDS011;9051;51.548;14.348;2022-09-09T15:42:53;1.85;;;1.33;;
17850;SDS011;9051;51.548;14.348;2022-09-09T15:45:25;2.47;;;1.63;;
17850;SDS011;9051;51.548;14.348;2022-09-09T15:47:57;2.25;;;1.60;;
17850;SDS011;9051;51.548;14.348;2022-09-09T15:50:31;2.70;;;1.70;;